ADDS METAR Data INFO
IDs: Format: Raw Decoded Include TAF

Data at: 2113 UTC 22 Oct 2017

KLRD 222056Z 02012KT 10SM CLR 31/19 A3006 RMK AO2 SLP179 T03110194 56011 $